Potato Creek, South Dakota
Current Conditions -  °F | °C
As of 11:47 PM on Wednesday 26 Nov 2014 (Local Time) from KPHP Reporting Station
Overcast Overcast  
Wind Chill:   Ceiling: 2300
Heat Index: 19°   Visibility: 10mi
Dew Point: 14°   Wind: 10mph
Humidity: 81%   Direction: 90°E
Pressure: 30.36"   Gusts: NA
Location:  43.7587°N, 101.898°W
Report Text: KPHP 270647Z AUTO 09009KT 10SM BKN023 OVC047 M07/M10 A3036 RMK AO2 T10721100
Loading
Personal Weather Stations






























Interactive Weather Map New forecast layout! Learn more

10-Day Weather Forecast

Advertisements
Track Severe Weather on mobile